sensor_id;sensor_type;location;lat;lon;timestamp;temperature;humidity
18365;DHT22;9309;52.126;11.616;2022-09-03T00:01:38;15.50;51.20
18365;DHT22;9309;52.126;11.616;2022-09-03T00:04:09;15.60;51.10
18365;DHT22;9309;52.126;11.616;2022-09-03T00:06:42;15.40;51.60
18365;DHT22;9309;52.126;11.616;2022-09-03T00:09:14;15.30;51.70
18365;DHT22;9309;52.126;11.616;2022-09-03T00:11:49;15.40;51.80
18365;DHT22;9309;52.126;11.616;2022-09-03T00:14:20;15.40;51.60
18365;DHT22;9309;52.126;11.616;2022-09-03T00:16:51;15.50;51.20
18365;DHT22;9309;52.126;11.616;2022-09-03T00:19:22;15.40;51.40
18365;DHT22;9309;52.126;11.616;2022-09-03T00:21:55;15.40;51.30
18365;DHT22;9309;52.126;11.616;2022-09-03T00:24:25;15.50;51.30
18365;DHT22;9309;52.126;11.616;2022-09-03T00:26:58;15.40;51.30
18365;DHT22;9309;52.126;11.616;2022-09-03T00:29:28;15.40;51.40
18365;DHT22;9309;52.126;11.616;2022-09-03T00:32:02;15.30;51.70
18365;DHT22;9309;52.126;11.616;2022-09-03T00:34:34;15.30;51.80
18365;DHT22;9309;52.126;11.616;2022-09-03T00:37:05;15.20;51.80
18365;DHT22;9309;52.126;11.616;2022-09-03T00:39:32;15.20;52.00
18365;DHT22;9309;52.126;11.616;2022-09-03T00:42:10;15.20;52.10
18365;DHT22;9309;52.126;11.616;2022-09-03T00:47:38;15.10;52.30
18365;DHT22;9309;52.126;11.616;2022-09-03T00:50:11;14.80;52.90
18365;DHT22;9309;52.126;11.616;2022-09-03T00:52:46;14.90;52.70
18365;DHT22;9309;52.126;11.616;2022-09-03T00:55:24;15.00;52.40
18365;DHT22;9309;52.126;11.616;2022-09-03T00:58:02;14.90;52.50
18365;DHT22;9309;52.126;11.616;2022-09-03T01:00:34;14.80;52.70
18365;DHT22;9309;52.126;11.616;2022-09-03T01:03:05;14.90;52.70
18365;DHT22;9309;52.126;11.616;2022-09-03T01:05:47;14.80;52.80
18365;DHT22;9309;52.126;11.616;2022-09-03T01:08:45;14.70;53.00
18365;DHT22;9309;52.126;11.616;2022-09-03T01:11:22;14.90;52.80
18365;DHT22;9309;52.126;11.616;2022-09-03T01:13:56;14.80;52.80
18365;DHT22;9309;52.126;11.616;2022-09-03T01:16:29;14.90;52.50
18365;DHT22;9309;52.126;11.616;2022-09-03T01:19:03;14.70;53.00
18365;DHT22;9309;52.126;11.616;2022-09-03T01:21:47;14.60;53.40
18365;DHT22;9309;52.126;11.616;2022-09-03T01:24:43;14.50;53.60
18365;DHT22;9309;52.126;11.616;2022-09-03T01:27:24;14.50;53.70
18365;DHT22;9309;52.126;11.616;2022-09-03T01:30:02;14.40;53.80
18365;DHT22;9309;52.126;11.616;2022-09-03T01:32:36;14.30;54.20
18365;DHT22;9309;52.126;11.616;2022-09-03T01:35:12;14.30;54.20
18365;DHT22;9309;52.126;11.616;2022-09-03T01:37:52;14.40;54.10
18365;DHT22;9309;52.126;11.616;2022-09-03T01:40:27;14.40;53.90
18365;DHT22;9309;52.126;11.616;2022-09-03T01:43:07;14.40;54.10
18365;DHT22;9309;52.126;11.616;2022-09-03T01:45:46;14.40;54.00
18365;DHT22;9309;52.126;11.616;2022-09-03T01:48:33;14.40;53.90
18365;DHT22;9309;52.126;11.616;2022-09-03T01:51:05;14.10;54.70
18365;DHT22;9309;52.126;11.616;2022-09-03T01:53:45;14.00;55.00
18365;DHT22;9309;52.126;11.616;2022-09-03T01:56:30;14.10;54.90
18365;DHT22;9309;52.126;11.616;2022-09-03T01:59:05;14.10;54.90
18365;DHT22;9309;52.126;11.616;2022-09-03T02:01:40;14.10;54.70
18365;DHT22;9309;52.126;11.616;2022-09-03T02:04:18;14.10;54.80
18365;DHT22;9309;52.126;11.616;2022-09-03T02:06:45;14.10;55.00
18365;DHT22;9309;52.126;11.616;2022-09-03T02:09:13;14.20;54.50
18365;DHT22;9309;52.126;11.616;2022-09-03T02:11:40;14.20;54.70
18365;DHT22;9309;52.126;11.616;2022-09-03T02:14:08;14.20;54.60
18365;DHT22;9309;52.126;11.616;2022-09-03T02:16:36;14.10;54.70
18365;DHT22;9309;52.126;11.616;2022-09-03T02:19:06;14.20;54.50
18365;DHT22;9309;52.126;11.616;2022-09-03T02:21:38;14.20;54.50
18365;DHT22;9309;52.126;11.616;2022-09-03T02:24:07;14.20;54.40
18365;DHT22;9309;52.126;11.616;2022-09-03T02:26:34;14.00;55.00
18365;DHT22;9309;52.126;11.616;2022-09-03T02:29:02;14.10;54.80
18365;DHT22;9309;52.126;11.616;2022-09-03T02:31:29;14.10;54.90
18365;DHT22;9309;52.126;11.616;2022-09-03T02:33:57;14.00;54.90
18365;DHT22;9309;52.126;11.616;2022-09-03T02:36:27;14.10;54.70
18365;DHT22;9309;52.126;11.616;2022-09-03T02:38:55;14.10;54.70
18365;DHT22;9309;52.126;11.616;2022-09-03T02:41:22;14.00;55.10
18365;DHT22;9309;52.126;11.616;2022-09-03T02:43:55;14.00;55.20
18365;DHT22;9309;52.126;11.616;2022-09-03T02:46:28;14.10;55.00
18365;DHT22;9309;52.126;11.616;2022-09-03T02:48:59;14.10;55.00
18365;DHT22;9309;52.126;11.616;2022-09-03T02:51:26;13.90;55.60
18365;DHT22;9309;52.126;11.616;2022-09-03T02:53:52;14.00;55.30
18365;DHT22;9309;52.126;11.616;2022-09-03T02:56:19;14.00;55.50
18365;DHT22;9309;52.126;11.616;2022-09-03T02:58:48;13.90;55.80
18365;DHT22;9309;52.126;11.616;2022-09-03T03:01:15;13.90;55.70
18365;DHT22;9309;52.126;11.616;2022-09-03T03:03:42;13.90;55.80
18365;DHT22;9309;52.126;11.616;2022-09-03T03:06:10;13.90;55.90
18365;DHT22;9309;52.126;11.616;2022-09-03T03:08:39;13.90;55.80
18365;DHT22;9309;52.126;11.616;2022-09-03T03:11:06;13.80;56.00
18365;DHT22;9309;52.126;11.616;2022-09-03T03:13:33;13.80;56.20
18365;DHT22;9309;52.126;11.616;2022-09-03T03:16:01;13.70;56.40
18365;DHT22;9309;52.126;11.616;2022-09-03T03:18:28;13.60;56.50
18365;DHT22;9309;52.126;11.616;2022-09-03T03:20:55;13.50;56.80
18365;DHT22;9309;52.126;11.616;2022-09-03T03:23:23;13.60;56.50
18365;DHT22;9309;52.126;11.616;2022-09-03T03:25:49;13.70;56.40
18365;DHT22;9309;52.126;11.616;2022-09-03T03:28:16;13.70;56.60
18365;DHT22;9309;52.126;11.616;2022-09-03T03:30:45;13.70;56.50
18365;DHT22;9309;52.126;11.616;2022-09-03T03:33:13;13.70;56.60
18365;DHT22;9309;52.126;11.616;2022-09-03T03:35:39;13.70;56.50
18365;DHT22;9309;52.126;11.616;2022-09-03T03:38:07;13.60;56.90
18365;DHT22;9309;52.126;11.616;2022-09-03T03:40:36;13.50;57.40
18365;DHT22;9309;52.126;11.616;2022-09-03T03:43:03;13.40;57.50
18365;DHT22;9309;52.126;11.616;2022-09-03T03:45:29;13.40;58.00
18365;DHT22;9309;52.126;11.616;2022-09-03T03:47:56;13.30;58.30
18365;DHT22;9309;52.126;11.616;2022-09-03T03:50:23;13.20;58.90
18365;DHT22;9309;52.126;11.616;2022-09-03T03:52:50;13.20;59.00
18365;DHT22;9309;52.126;11.616;2022-09-03T03:55:16;13.30;58.30
18365;DHT22;9309;52.126;11.616;2022-09-03T03:57:44;13.50;57.70
18365;DHT22;9309;52.126;11.616;2022-09-03T04:00:13;13.50;57.60
18365;DHT22;9309;52.126;11.616;2022-09-03T04:02:42;13.50;57.70
18365;DHT22;9309;52.126;11.616;2022-09-03T04:05:09;13.50;57.70
18365;DHT22;9309;52.126;11.616;2022-09-03T04:07:36;13.60;57.60
18365;DHT22;9309;52.126;11.616;2022-09-03T04:10:03;13.50;57.90
18365;DHT22;9309;52.126;11.616;2022-09-03T04:12:30;13.40;58.40
18365;DHT22;9309;52.126;11.616;2022-09-03T04:14:58;13.30;58.70
18365;DHT22;9309;52.126;11.616;2022-09-03T04:17:26;13.20;59.30
18365;DHT22;9309;52.126;11.616;2022-09-03T04:19:53;13.20;59.40
18365;DHT22;9309;52.126;11.616;2022-09-03T04:22:20;13.20;59.60
18365;DHT22;9309;52.126;11.616;2022-09-03T04:24:46;13.10;59.80
18365;DHT22;9309;52.126;11.616;2022-09-03T04:27:13;13.10;60.00
18365;DHT22;9309;52.126;11.616;2022-09-03T04:29:40;13.00;60.30
18365;DHT22;9309;52.126;11.616;2022-09-03T04:32:08;13.00;60.40
18365;DHT22;9309;52.126;11.616;2022-09-03T04:34:52;13.10;60.20
18365;DHT22;9309;52.126;11.616;2022-09-03T04:37:18;13.20;59.80
18365;DHT22;9309;52.126;11.616;2022-09-03T04:39:45;13.20;59.40
18365;DHT22;9309;52.126;11.616;2022-09-03T04:42:11;13.30;59.30
18365;DHT22;9309;52.126;11.616;2022-09-03T04:44:38;13.20;59.60
18365;DHT22;9309;52.126;11.616;2022-09-03T04:47:05;13.20;59.90
18365;DHT22;9309;52.126;11.616;2022-09-03T04:49:33;13.10;60.20
18365;DHT22;9309;52.126;11.616;2022-09-03T04:52:00;13.20;60.00
18365;DHT22;9309;52.126;11.616;2022-09-03T04:54:27;13.20;60.10
18365;DHT22;9309;52.126;11.616;2022-09-03T04:56:54;13.20;60.10
18365;DHT22;9309;52.126;11.616;2022-09-03T04:59:20;13.30;59.90
18365;DHT22;9309;52.126;11.616;2022-09-03T05:01:47;13.30;59.70
18365;DHT22;9309;52.126;11.616;2022-09-03T05:04:14;13.30;59.80
18365;DHT22;9309;52.126;11.616;2022-09-03T05:06:42;13.30;60.00
18365;DHT22;9309;52.126;11.616;2022-09-03T05:09:09;13.40;59.80
18365;DHT22;9309;52.126;11.616;2022-09-03T05:11:36;13.40;59.90
18365;DHT22;9309;52.126;11.616;2022-09-03T05:14:03;13.30;60.10
18365;DHT22;9309;52.126;11.616;2022-09-03T05:16:31;13.30;60.30
18365;DHT22;9309;52.126;11.616;2022-09-03T05:18:59;13.30;60.10
18365;DHT22;9309;52.126;11.616;2022-09-03T05:21:26;13.40;60.00
18365;DHT22;9309;52.126;11.616;2022-09-03T05:23:55;13.40;60.00
18365;DHT22;9309;52.126;11.616;2022-09-03T05:26:24;13.40;60.40
18365;DHT22;9309;52.126;11.616;2022-09-03T05:28:53;13.30;60.80
18365;DHT22;9309;52.126;11.616;2022-09-03T05:31:21;13.20;61.10
18365;DHT22;9309;52.126;11.616;2022-09-03T05:33:49;13.30;60.70
18365;DHT22;9309;52.126;11.616;2022-09-03T05:36:18;13.30;60.60
18365;DHT22;9309;52.126;11.616;2022-09-03T05:38:45;13.20;60.90
18365;DHT22;9309;52.126;11.616;2022-09-03T05:41:16;13.30;60.70
18365;DHT22;9309;52.126;11.616;2022-09-03T05:43:43;13.20;61.10
18365;DHT22;9309;52.126;11.616;2022-09-03T05:46:11;13.30;60.70
18365;DHT22;9309;52.126;11.616;2022-09-03T05:48:39;13.30;60.80
18365;DHT22;9309;52.126;11.616;2022-09-03T05:51:08;13.40;60.50
18365;DHT22;9309;52.126;11.616;2022-09-03T05:53:38;13.60;59.90
18365;DHT22;9309;52.126;11.616;2022-09-03T05:56:06;13.50;60.20
18365;DHT22;9309;52.126;11.616;2022-09-03T05:58:38;13.60;60.20
18365;DHT22;9309;52.126;11.616;2022-09-03T06:01:10;13.70;60.00
18365;DHT22;9309;52.126;11.616;2022-09-03T06:03:37;13.90;59.20
18365;DHT22;9309;52.126;11.616;2022-09-03T06:06:04;13.70;59.40
18365;DHT22;9309;52.126;11.616;2022-09-03T06:08:31;13.60;59.90
18365;DHT22;9309;52.126;11.616;2022-09-03T06:10:58;13.70;59.80
18365;DHT22;9309;52.126;11.616;2022-09-03T06:13:25;13.80;59.70
18365;DHT22;9309;52.126;11.616;2022-09-03T06:15:57;13.90;59.70
18365;DHT22;9309;52.126;11.616;2022-09-03T06:18:24;13.90;59.50
18365;DHT22;9309;52.126;11.616;2022-09-03T06:20:54;14.00;59.20
18365;DHT22;9309;52.126;11.616;2022-09-03T06:23:20;14.10;59.40
18365;DHT22;9309;52.126;11.616;2022-09-03T06:25:47;14.20;59.20
18365;DHT22;9309;52.126;11.616;2022-09-03T06:28:14;14.10;59.10
18365;DHT22;9309;52.126;11.616;2022-09-03T06:30:40;14.10;59.40
18365;DHT22;9309;52.126;11.616;2022-09-03T06:33:08;14.10;59.40
18365;DHT22;9309;52.126;11.616;2022-09-03T06:35:35;14.30;59.10
18365;DHT22;9309;52.126;11.616;2022-09-03T06:38:02;14.40;58.60
18365;DHT22;9309;52.126;11.616;2022-09-03T06:40:28;14.40;59.20
18365;DHT22;9309;52.126;11.616;2022-09-03T06:42:56;14.40;59.30
18365;DHT22;9309;52.126;11.616;2022-09-03T06:45:25;14.50;59.50
18365;DHT22;9309;52.126;11.616;2022-09-03T06:47:53;14.70;58.90
18365;DHT22;9309;52.126;11.616;2022-09-03T06:50:21;14.80;58.40
18365;DHT22;9309;52.126;11.616;2022-09-03T06:52:50;14.90;58.30
18365;DHT22;9309;52.126;11.616;2022-09-03T06:55:20;15.00;58.00
18365;DHT22;9309;52.126;11.616;2022-09-03T06:57:47;15.10;58.10
18365;DHT22;9309;52.126;11.616;2022-09-03T07:00:14;15.20;57.50
18365;DHT22;9309;52.126;11.616;2022-09-03T07:02:41;15.20;57.20
18365;DHT22;9309;52.126;11.616;2022-09-03T07:05:09;15.30;57.40
18365;DHT22;9309;52.126;11.616;2022-09-03T07:07:37;15.40;57.30
18365;DHT22;9309;52.126;11.616;2022-09-03T07:10:05;15.50;56.70
18365;DHT22;9309;52.126;11.616;2022-09-03T07:12:32;15.70;56.50
18365;DHT22;9309;52.126;11.616;2022-09-03T07:15:02;15.60;56.60
18365;DHT22;9309;52.126;11.616;2022-09-03T07:17:29;15.80;55.70
18365;DHT22;9309;52.126;11.616;2022-09-03T07:19:55;15.90;55.40
18365;DHT22;9309;52.126;11.616;2022-09-03T07:22:22;15.90;55.30
18365;DHT22;9309;52.126;11.616;2022-09-03T07:24:50;16.00;55.20
18365;DHT22;9309;52.126;11.616;2022-09-03T07:27:17;16.20;54.80
18365;DHT22;9309;52.126;11.616;2022-09-03T07:29:43;16.40;54.40
18365;DHT22;9309;52.126;11.616;2022-09-03T07:32:10;16.50;53.80
18365;DHT22;9309;52.126;11.616;2022-09-03T07:34:36;16.50;53.70
18365;DHT22;9309;52.126;11.616;2022-09-03T07:37:03;16.50;54.00
18365;DHT22;9309;52.126;11.616;2022-09-03T07:39:31;16.60;54.00
18365;DHT22;9309;52.126;11.616;2022-09-03T07:42:00;16.70;53.50
18365;DHT22;9309;52.126;11.616;2022-09-03T07:44:26;16.90;52.90
18365;DHT22;9309;52.126;11.616;2022-09-03T07:46:54;16.70;52.80
18365;DHT22;9309;52.126;11.616;2022-09-03T07:49:20;16.70;53.40
18365;DHT22;9309;52.126;11.616;2022-09-03T07:51:47;17.00;52.60
18365;DHT22;9309;52.126;11.616;2022-09-03T07:54:17;17.20;52.00
18365;DHT22;9309;52.126;11.616;2022-09-03T07:56:44;17.30;51.70
18365;DHT22;9309;52.126;11.616;2022-09-03T07:59:12;17.20;51.40
18365;DHT22;9309;52.126;11.616;2022-09-03T08:01:39;17.30;51.70
18365;DHT22;9309;52.126;11.616;2022-09-03T08:04:06;17.50;50.90
18365;DHT22;9309;52.126;11.616;2022-09-03T08:06:33;17.60;50.60
18365;DHT22;9309;52.126;11.616;2022-09-03T08:09:02;17.70;50.40
18365;DHT22;9309;52.126;11.616;2022-09-03T08:11:29;17.70;50.20
18365;DHT22;9309;52.126;11.616;2022-09-03T08:13:57;17.70;49.40
18365;DHT22;9309;52.126;11.616;2022-09-03T08:16:29;17.60;50.40
18365;DHT22;9309;52.126;11.616;2022-09-03T08:18:56;17.90;49.60
18365;DHT22;9309;52.126;11.616;2022-09-03T08:21:24;18.10;49.00
18365;DHT22;9309;52.126;11.616;2022-09-03T08:23:52;18.40;48.60
18365;DHT22;9309;52.126;11.616;2022-09-03T08:26:20;18.50;48.10
18365;DHT22;9309;52.126;11.616;2022-09-03T08:28:47;18.50;47.70
18365;DHT22;9309;52.126;11.616;2022-09-03T08:31:15;18.40;47.40
18365;DHT22;9309;52.126;11.616;2022-09-03T08:33:45;18.50;46.90
18365;DHT22;9309;52.126;11.616;2022-09-03T08:36:14;18.40;47.20
18365;DHT22;9309;52.126;11.616;2022-09-03T08:38:42;18.60;46.80
18365;DHT22;9309;52.126;11.616;2022-09-03T08:41:12;18.70;46.40
18365;DHT22;9309;52.126;11.616;2022-09-03T08:43:55;18.90;46.00
18365;DHT22;9309;52.126;11.616;2022-09-03T08:46:34;18.50;47.30
18365;DHT22;9309;52.126;11.616;2022-09-03T08:49:06;18.70;46.90
18365;DHT22;9309;52.126;11.616;2022-09-03T08:51:36;18.90;46.60
18365;DHT22;9309;52.126;11.616;2022-09-03T08:54:08;19.20;45.80
18365;DHT22;9309;52.126;11.616;2022-09-03T08:56:38;19.00;46.20
18365;DHT22;9309;52.126;11.616;2022-09-03T08:59:06;19.10;45.80
18365;DHT22;9309;52.126;11.616;2022-09-03T09:01:39;19.20;45.40
18365;DHT22;9309;52.126;11.616;2022-09-03T09:04:17;19.30;45.10
18365;DHT22;9309;52.126;11.616;2022-09-03T09:06:54;19.40;44.60
18365;DHT22;9309;52.126;11.616;2022-09-03T09:09:27;19.50;44.10
18365;DHT22;9309;52.126;11.616;2022-09-03T09:12:08;19.40;43.80
18365;DHT22;9309;52.126;11.616;2022-09-03T09:14:51;19.60;43.80
18365;DHT22;9309;52.126;11.616;2022-09-03T09:17:39;19.70;43.40
18365;DHT22;9309;52.126;11.616;2022-09-03T09:20:16;20.10;43.00
18365;DHT22;9309;52.126;11.616;2022-09-03T09:22:46;20.50;41.10
18365;DHT22;9309;52.126;11.616;2022-09-03T09:25:18;20.40;40.40
18365;DHT22;9309;52.126;11.616;2022-09-03T09:27:51;20.20;41.50
18365;DHT22;9309;52.126;11.616;2022-09-03T09:30:20;20.10;41.00
18365;DHT22;9309;52.126;11.616;2022-09-03T09:32:47;20.10;40.80
18365;DHT22;9309;52.126;11.616;2022-09-03T09:35:17;20.10;40.50
18365;DHT22;9309;52.126;11.616;2022-09-03T09:37:51;20.10;41.60
18365;DHT22;9309;52.126;11.616;2022-09-03T09:40:27;20.10;40.30
18365;DHT22;9309;52.126;11.616;2022-09-03T09:43:09;20.20;40.80
18365;DHT22;9309;52.126;11.616;2022-09-03T09:45:37;20.30;41.10
18365;DHT22;9309;52.126;11.616;2022-09-03T09:48:09;20.70;40.10
18365;DHT22;9309;52.126;11.616;2022-09-03T09:50:40;20.90;39.80
18365;DHT22;9309;52.126;11.616;2022-09-03T09:53:08;21.30;38.30
18365;DHT22;9309;52.126;11.616;2022-09-03T09:55:52;21.40;37.60
18365;DHT22;9309;52.126;11.616;2022-09-03T09:58:24;21.40;37.40
18365;DHT22;9309;52.126;11.616;2022-09-03T10:00:57;21.60;37.10
18365;DHT22;9309;52.126;11.616;2022-09-03T10:03:25;21.40;37.10
18365;DHT22;9309;52.126;11.616;2022-09-03T10:06:03;21.80;36.90
18365;DHT22;9309;52.126;11.616;2022-09-03T10:08:52;22.00;34.50
18365;DHT22;9309;52.126;11.616;2022-09-03T10:11:20;22.30;34.60
18365;DHT22;9309;52.126;11.616;2022-09-03T10:13:51;22.40;33.30
18365;DHT22;9309;52.126;11.616;2022-09-03T10:16:22;22.10;33.10
18365;DHT22;9309;52.126;11.616;2022-09-03T10:18:57;21.20;32.70
18365;DHT22;9309;52.126;11.616;2022-09-03T10:21:31;21.40;33.90
18365;DHT22;9309;52.126;11.616;2022-09-03T10:24:18;21.70;34.00
18365;DHT22;9309;52.126;11.616;2022-09-03T10:26:50;21.60;33.80
18365;DHT22;9309;52.126;11.616;2022-09-03T10:29:20;21.60;33.80
18365;DHT22;9309;52.126;11.616;2022-09-03T10:32:00;21.70;33.60
18365;DHT22;9309;52.126;11.616;2022-09-03T10:34:33;21.60;33.50
18365;DHT22;9309;52.126;11.616;2022-09-03T10:37:16;21.70;33.80
18365;DHT22;9309;52.126;11.616;2022-09-03T10:39:57;21.80;33.70
18365;DHT22;9309;52.126;11.616;2022-09-03T10:42:35;22.20;33.50
18365;DHT22;9309;52.126;11.616;2022-09-03T10:45:12;22.20;33.50
18365;DHT22;9309;52.126;11.616;2022-09-03T10:48:00;22.40;33.10
18365;DHT22;9309;52.126;11.616;2022-09-03T10:50:33;22.10;33.80
18365;DHT22;9309;52.126;11.616;2022-09-03T10:53:11;22.40;33.50
18365;DHT22;9309;52.126;11.616;2022-09-03T10:55:47;22.40;33.20
18365;DHT22;9309;52.126;11.616;2022-09-03T10:58:34;22.40;33.20
18365;DHT22;9309;52.126;11.616;2022-09-03T11:01:05;22.90;32.70
18365;DHT22;9309;52.126;11.616;2022-09-03T11:03:39;25.30;29.40
18365;DHT22;9309;52.126;11.616;2022-09-03T11:06:10;25.80;28.20
18365;DHT22;9309;52.126;11.616;2022-09-03T11:08:40;25.50;29.10
18365;DHT22;9309;52.126;11.616;2022-09-03T11:11:09;24.60;30.50
18365;DHT22;9309;52.126;11.616;2022-09-03T11:13:38;25.30;29.30
18365;DHT22;9309;52.126;11.616;2022-09-03T11:16:07;28.40;26.10
18365;DHT22;9309;52.126;11.616;2022-09-03T11:18:39;29.70;24.00
18365;DHT22;9309;52.126;11.616;2022-09-03T11:21:07;28.80;25.00
18365;DHT22;9309;52.126;11.616;2022-09-03T11:23:36;28.60;24.90
18365;DHT22;9309;52.126;11.616;2022-09-03T11:26:06;29.70;24.60
18365;DHT22;9309;52.126;11.616;2022-09-03T11:28:37;31.10;22.70
18365;DHT22;9309;52.126;11.616;2022-09-03T11:31:15;32.10;22.20
18365;DHT22;9309;52.126;11.616;2022-09-03T11:33:44;31.10;23.00
18365;DHT22;9309;52.126;11.616;2022-09-03T11:36:11;29.40;23.60
18365;DHT22;9309;52.126;11.616;2022-09-03T11:38:38;30.70;23.30
18365;DHT22;9309;52.126;11.616;2022-09-03T11:41:13;31.40;22.10
18365;DHT22;9309;52.126;11.616;2022-09-03T11:43:41;32.90;21.40
18365;DHT22;9309;52.126;11.616;2022-09-03T11:46:10;32.10;21.50
18365;DHT22;9309;52.126;11.616;2022-09-03T11:48:44;28.70;24.60
18365;DHT22;9309;52.126;11.616;2022-09-03T11:51:18;28.20;25.10
18365;DHT22;9309;52.126;11.616;2022-09-03T11:53:53;29.40;24.00
18365;DHT22;9309;52.126;11.616;2022-09-03T11:56:22;30.60;23.20
18365;DHT22;9309;52.126;11.616;2022-09-03T11:59:02;33.40;21.00
18365;DHT22;9309;52.126;11.616;2022-09-03T12:01:29;31.70;22.00
18365;DHT22;9309;52.126;11.616;2022-09-03T12:03:58;30.80;22.70
18365;DHT22;9309;52.126;11.616;2022-09-03T12:06:42;31.00;22.20
18365;DHT22;9309;52.126;11.616;2022-09-03T12:09:24;32.60;20.90
18365;DHT22;9309;52.126;11.616;2022-09-03T12:12:06;31.10;22.00
18365;DHT22;9309;52.126;11.616;2022-09-03T12:14:41;31.40;21.60
18365;DHT22;9309;52.126;11.616;2022-09-03T12:17:22;32.00;21.20
18365;DHT22;9309;52.126;11.616;2022-09-03T12:19:53;32.30;21.50
18365;DHT22;9309;52.126;11.616;2022-09-03T12:22:22;32.50;20.90
18365;DHT22;9309;52.126;11.616;2022-09-03T12:24:49;31.40;21.90
18365;DHT22;9309;52.126;11.616;2022-09-03T12:27:20;30.50;22.70
18365;DHT22;9309;52.126;11.616;2022-09-03T12:29:53;28.20;24.90
18365;DHT22;9309;52.126;11.616;2022-09-03T12:32:25;29.20;24.50
18365;DHT22;9309;52.126;11.616;2022-09-03T12:34:52;30.30;23.40
18365;DHT22;9309;52.126;11.616;2022-09-03T12:37:21;32.60;21.90
18365;DHT22;9309;52.126;11.616;2022-09-03T12:39:50;33.50;21.00
18365;DHT22;9309;52.126;11.616;2022-09-03T12:42:22;33.90;20.70
18365;DHT22;9309;52.126;11.616;2022-09-03T12:44:50;31.40;22.40
18365;DHT22;9309;52.126;11.616;2022-09-03T12:47:18;30.40;23.20
18365;DHT22;9309;52.126;11.616;2022-09-03T12:49:47;30.70;22.60
18365;DHT22;9309;52.126;11.616;2022-09-03T12:52:18;29.60;24.10
18365;DHT22;9309;52.126;11.616;2022-09-03T12:54:49;29.00;24.30
18365;DHT22;9309;52.126;11.616;2022-09-03T12:57:21;31.10;22.70
18365;DHT22;9309;52.126;11.616;2022-09-03T12:59:52;31.40;22.40
18365;DHT22;9309;52.126;11.616;2022-09-03T13:02:25;32.70;21.40
18365;DHT22;9309;52.126;11.616;2022-09-03T13:04:53;33.00;21.00
18365;DHT22;9309;52.126;11.616;2022-09-03T13:07:24;30.60;23.00
18365;DHT22;9309;52.126;11.616;2022-09-03T13:09:59;29.50;24.10
18365;DHT22;9309;52.126;11.616;2022-09-03T13:12:32;30.40;23.50
18365;DHT22;9309;52.126;11.616;2022-09-03T13:15:06;31.50;22.30
18365;DHT22;9309;52.126;11.616;2022-09-03T13:17:52;31.10;22.60
18365;DHT22;9309;52.126;11.616;2022-09-03T13:20:28;31.20;22.70
18365;DHT22;9309;52.126;11.616;2022-09-03T13:23:07;31.90;22.00
18365;DHT22;9309;52.126;11.616;2022-09-03T13:25:41;31.70;21.90
18365;DHT22;9309;52.126;11.616;2022-09-03T13:28:22;28.20;24.90
18365;DHT22;9309;52.126;11.616;2022-09-03T13:30:55;26.10;27.40
18365;DHT22;9309;52.126;11.616;2022-09-03T13:33:25;25.60;28.20
18365;DHT22;9309;52.126;11.616;2022-09-03T13:35:59;26.40;27.90
18365;DHT22;9309;52.126;11.616;2022-09-03T13:38:30;28.40;25.40
18365;DHT22;9309;52.126;11.616;2022-09-03T13:41:01;30.10;23.60
18365;DHT22;9309;52.126;11.616;2022-09-03T13:43:38;30.50;23.20
18365;DHT22;9309;52.126;11.616;2022-09-03T13:46:10;32.30;21.40
18365;DHT22;9309;52.126;11.616;2022-09-03T13:48:39;34.10;20.20
18365;DHT22;9309;52.126;11.616;2022-09-03T13:51:27;35.00;19.40
18365;DHT22;9309;52.126;11.616;2022-09-03T13:54:06;32.40;21.20
18365;DHT22;9309;52.126;11.616;2022-09-03T13:56:46;31.70;22.30
18365;DHT22;9309;52.126;11.616;2022-09-03T13:59:22;31.40;22.40
18365;DHT22;9309;52.126;11.616;2022-09-03T14:02:04;31.00;22.50
18365;DHT22;9309;52.126;11.616;2022-09-03T14:04:41;33.40;20.70
18365;DHT22;9309;52.126;11.616;2022-09-03T14:07:16;35.10;19.40
18365;DHT22;9309;52.126;11.616;2022-09-03T14:09:55;35.60;19.00
18365;DHT22;9309;52.126;11.616;2022-09-03T14:12:34;34.10;20.10
18365;DHT22;9309;52.126;11.616;2022-09-03T14:15:08;32.10;21.70
18365;DHT22;9309;52.126;11.616;2022-09-03T14:17:43;29.50;23.80
18365;DHT22;9309;52.126;11.616;2022-09-03T14:20:17;26.90;26.50
18365;DHT22;9309;52.126;11.616;2022-09-03T14:22:51;25.50;28.00
18365;DHT22;9309;52.126;11.616;2022-09-03T14:25:20;24.60;29.20
18365;DHT22;9309;52.126;11.616;2022-09-03T14:27:49;24.50;29.50
18365;DHT22;9309;52.126;11.616;2022-09-03T14:30:24;24.50;29.60
18365;DHT22;9309;52.126;11.616;2022-09-03T14:32:57;24.40;30.40
18365;DHT22;9309;52.126;11.616;2022-09-03T14:35:36;24.30;31.20
18365;DHT22;9309;52.126;11.616;2022-09-03T14:38:26;24.40;31.20
18365;DHT22;9309;52.126;11.616;2022-09-03T14:41:02;24.10;31.30
18365;DHT22;9309;52.126;11.616;2022-09-03T14:46:51;23.70;32.20
18365;DHT22;9309;52.126;11.616;2022-09-03T14:49:32;23.60;32.50
18365;DHT22;9309;52.126;11.616;2022-09-03T14:52:14;23.50;33.00
18365;DHT22;9309;52.126;11.616;2022-09-03T14:55:16;23.70;33.00
18365;DHT22;9309;52.126;11.616;2022-09-03T14:57:54;24.00;31.80
18365;DHT22;9309;52.126;11.616;2022-09-03T15:00:31;23.80;32.50
18365;DHT22;9309;52.126;11.616;2022-09-03T15:03:17;23.90;31.60
18365;DHT22;9309;52.126;11.616;2022-09-03T15:06:06;24.00;32.00
18365;DHT22;9309;52.126;11.616;2022-09-03T15:08:48;23.90;31.90
18365;DHT22;9309;52.126;11.616;2022-09-03T15:11:18;23.60;32.40
18365;DHT22;9309;52.126;11.616;2022-09-03T15:13:50;23.60;33.00
18365;DHT22;9309;52.126;11.616;2022-09-03T15:16:27;23.60;33.20
18365;DHT22;9309;52.126;11.616;2022-09-03T15:19:09;23.50;33.70
18365;DHT22;9309;52.126;11.616;2022-09-03T15:21:47;23.50;33.80
18365;DHT22;9309;52.126;11.616;2022-09-03T15:24:23;23.40;34.00
18365;DHT22;9309;52.126;11.616;2022-09-03T15:27:11;23.50;33.50
18365;DHT22;9309;52.126;11.616;2022-09-03T15:29:47;23.30;33.70
18365;DHT22;9309;52.126;11.616;2022-09-03T15:32:23;23.30;33.90
18365;DHT22;9309;52.126;11.616;2022-09-03T15:35:07;23.50;33.50
18365;DHT22;9309;52.126;11.616;2022-09-03T15:37:39;23.50;33.50
18365;DHT22;9309;52.126;11.616;2022-09-03T15:40:22;23.20;33.80
18365;DHT22;9309;52.126;11.616;2022-09-03T15:42:54;23.20;34.10
18365;DHT22;9309;52.126;11.616;2022-09-03T15:45:31;23.00;34.20
18365;DHT22;9309;52.126;11.616;2022-09-03T15:48:07;23.20;33.90
18365;DHT22;9309;52.126;11.616;2022-09-03T15:50:46;23.20;34.30
18365;DHT22;9309;52.126;11.616;2022-09-03T15:53:20;23.30;34.10
18365;DHT22;9309;52.126;11.616;2022-09-03T15:56:02;23.20;34.00
18365;DHT22;9309;52.126;11.616;2022-09-03T15:58:34;23.10;34.10
18365;DHT22;9309;52.126;11.616;2022-09-03T16:01:04;23.10;34.40
18365;DHT22;9309;52.126;11.616;2022-09-03T16:03:38;23.00;34.20
18365;DHT22;9309;52.126;11.616;2022-09-03T16:06:26;22.90;34.50